createdAt,value
2023-01-19T00:00:57.127Z,69.95
2023-01-19T00:01:57.107Z,72.10
2023-01-19T00:02:57.076Z,70.37
2023-01-19T00:03:57.087Z,68.82
2023-01-19T00:04:57.051Z,68.76
2023-01-19T00:05:57.114Z,68.64
2023-01-19T00:06:57.050Z,68.66
2023-01-19T00:07:57.111Z,68.73
2023-01-19T00:08:57.037Z,68.88
2023-01-19T00:09:57.030Z,68.63
2023-01-19T00:10:57.020Z,69.43
2023-01-19T00:11:57.027Z,68.79
2023-01-19T00:12:57.028Z,68.70
2023-01-19T00:13:57.002Z,68.70
2023-01-19T00:14:56.998Z,68.93
2023-01-19T00:15:57.000Z,71.74
2023-01-19T00:16:57.000Z,70.48
2023-01-19T00:17:56.979Z,69.33
2023-01-19T00:18:57.087Z,68.86
2023-01-19T00:19:56.970Z,69.67
2023-01-19T00:20:56.957Z,69.04
2023-01-19T00:21:57.964Z,69.82
2023-01-19T00:22:57.256Z,68.85
2023-01-19T00:23:56.998Z,69.53
2023-01-19T00:24:56.963Z,68.78
2023-01-19T00:25:56.920Z,69.56
2023-01-19T00:26:56.914Z,71.37
2023-01-19T00:27:57.157Z,68.58
2023-01-19T00:28:57.929Z,68.70
2023-01-19T00:29:56.917Z,68.71
2023-01-19T00:30:56.909Z,68.73
2023-01-19T00:31:56.894Z,68.76
2023-01-19T00:32:57.018Z,70.15
2023-01-19T00:33:57.896Z,68.61
2023-01-19T00:34:56.893Z,68.76
2023-01-19T00:35:56.922Z,69.41
2023-01-19T00:36:56.892Z,68.98
2023-01-19T00:37:56.863Z,69.34
2023-01-19T00:38:56.874Z,70.48
2023-01-19T00:39:56.841Z,68.74
2023-01-19T00:40:56.840Z,71.42
2023-01-19T00:41:56.837Z,68.70
2023-01-19T00:42:56.836Z,69.59
2023-01-19T00:43:56.831Z,68.69
2023-01-19T00:44:56.831Z,69.80
2023-01-19T00:45:56.884Z,68.88
2023-01-19T00:46:56.802Z,68.91
2023-01-19T00:47:56.811Z,68.69
2023-01-19T00:48:56.792Z,68.72
2023-01-19T00:49:56.792Z,68.50
2023-01-19T00:50:56.810Z,68.65
2023-01-19T00:51:56.772Z,70.68
2023-01-19T00:52:56.766Z,68.76
2023-01-19T00:53:56.780Z,69.52
2023-01-19T00:54:56.758Z,68.69
2023-01-19T00:55:56.768Z,68.67
2023-01-19T00:56:56.773Z,68.62
2023-01-19T00:57:56.746Z,68.64
2023-01-19T00:58:56.728Z,68.76
2023-01-19T00:59:56.728Z,68.61
2023-01-19T01:00:56.855Z,69.51
2023-01-19T01:01:56.909Z,68.89
2023-01-19T01:02:56.758Z,68.65
2023-01-19T01:03:56.704Z,68.72
2023-01-19T01:04:57.700Z,68.69
2023-01-19T01:05:56.713Z,69.02
2023-01-19T01:06:56.704Z,68.81
2023-01-19T01:07:56.709Z,69.69
2023-01-19T01:08:56.688Z,68.78
2023-01-19T01:09:56.702Z,68.77
2023-01-19T01:10:56.661Z,69.86
2023-01-19T01:11:56.691Z,68.85
2023-01-19T01:12:58.959Z,70.63
2023-01-19T01:13:56.664Z,68.72
2023-01-19T01:14:56.665Z,68.53
2023-01-19T01:15:56.632Z,68.62
2023-01-19T01:16:56.633Z,68.62
2023-01-19T01:17:56.681Z,68.77
2023-01-19T01:18:56.622Z,70.02
2023-01-19T01:19:56.617Z,68.50
2023-01-19T01:20:56.633Z,68.54
2023-01-19T01:21:56.626Z,68.51
2023-01-19T01:22:56.660Z,68.53
2023-01-19T01:23:56.624Z,68.44
2023-01-19T01:24:56.592Z,68.49
2023-01-19T01:25:56.586Z,69.28
2023-01-19T01:26:56.596Z,68.84
2023-01-19T01:27:56.593Z,70.92
2023-01-19T01:28:56.574Z,68.50
2023-01-19T01:29:56.597Z,68.57
2023-01-19T01:30:56.561Z,68.45
2023-01-19T01:31:56.572Z,70.44
2023-01-19T01:32:56.537Z,68.71
2023-01-19T01:33:56.532Z,68.39
2023-01-19T01:34:56.525Z,69.18
2023-01-19T01:35:56.566Z,68.44
2023-01-19T01:36:56.508Z,68.45
2023-01-19T01:37:56.513Z,68.44
2023-01-19T01:38:56.527Z,69.59
2023-01-19T01:39:56.488Z,68.47
2023-01-19T01:40:56.488Z,69.16
2023-01-19T01:41:57.570Z,68.43
2023-01-19T01:42:56.459Z,68.46
2023-01-19T01:43:56.472Z,68.47
2023-01-19T01:44:56.476Z,68.40
2023-01-19T01:45:56.479Z,68.45
2023-01-19T01:46:56.483Z,69.10
2023-01-19T01:47:56.479Z,68.46
2023-01-19T01:48:56.475Z,71.40
2023-01-19T01:49:56.447Z,68.51
2023-01-19T01:50:56.461Z,68.43
2023-01-19T01:51:56.444Z,68.59
2023-01-19T01:53:06.319Z,70.90
2023-01-19T01:53:57.438Z,68.74
2023-01-19T01:54:56.402Z,68.59
2023-01-19T01:55:57.028Z,69.47
2023-01-19T01:56:56.439Z,69.26
2023-01-19T01:57:56.634Z,68.60
2023-01-19T01:58:56.533Z,68.54
2023-01-19T01:59:56.445Z,69.57
2023-01-19T02:00:56.596Z,68.60
2023-01-19T02:01:56.517Z,68.58
2023-01-19T02:02:56.523Z,68.44
2023-01-19T02:03:56.525Z,68.56
2023-01-19T02:04:56.488Z,68.64
2023-01-19T02:05:56.517Z,68.62
2023-01-19T02:06:56.404Z,68.69
2023-01-19T02:07:56.417Z,70.85
2023-01-19T02:08:56.430Z,68.54
2023-01-19T02:09:56.324Z,68.48
2023-01-19T02:10:56.329Z,68.51
2023-01-19T02:11:56.304Z,69.18
2023-01-19T02:12:56.316Z,68.48
2023-01-19T02:13:56.289Z,68.55
2023-01-19T02:14:56.271Z,69.46
2023-01-19T02:15:56.276Z,69.20
2023-01-19T02:16:57.263Z,70.17
2023-01-19T02:17:56.267Z,71.58
2023-01-19T02:18:56.244Z,68.56
2023-01-19T02:19:56.267Z,69.68
2023-01-19T02:20:56.236Z,64.31
2023-01-19T02:21:56.231Z,65.75
2023-01-19T02:22:56.247Z,67.95
2023-01-19T02:23:56.218Z,65.90
2023-01-19T02:24:56.203Z,66.42
2023-01-19T02:25:56.225Z,66.83
2023-01-19T02:26:56.200Z,68.39
2023-01-19T02:27:56.204Z,68.04
2023-01-19T02:28:56.194Z,69.40
2023-01-19T02:29:56.176Z,71.08
2023-01-19T02:30:56.213Z,68.73
2023-01-19T02:31:56.190Z,68.76
2023-01-19T02:32:56.190Z,68.76
2023-01-19T02:33:56.144Z,68.71
2023-01-19T02:34:56.168Z,68.61
2023-01-19T02:35:56.156Z,68.66
2023-01-19T02:36:56.146Z,69.34
2023-01-19T02:37:56.125Z,68.84
2023-01-19T02:38:56.236Z,71.32
2023-01-19T02:39:56.117Z,69.99
2023-01-19T02:40:56.115Z,68.85
2023-01-19T02:41:56.164Z,68.79
2023-01-19T02:42:56.098Z,68.73
2023-01-19T02:43:56.105Z,68.69
2023-01-19T02:44:56.091Z,68.74
2023-01-19T02:45:56.118Z,68.80
2023-01-19T02:46:56.078Z,69.60
2023-01-19T02:47:56.078Z,72.59
2023-01-19T02:48:56.094Z,68.72
2023-01-19T02:49:56.062Z,68.62
2023-01-19T02:50:56.076Z,72.14
2023-01-19T02:51:56.055Z,70.00
2023-01-19T02:52:56.041Z,68.77
2023-01-19T02:53:56.030Z,70.71
2023-01-19T02:54:56.050Z,71.97
2023-01-19T02:55:56.030Z,68.70
2023-01-19T02:56:56.020Z,70.23
2023-01-19T02:57:56.004Z,68.91
2023-01-19T02:58:56.027Z,69.24
2023-01-19T02:59:56.011Z,69.69
2023-01-19T03:00:56.062Z,68.99
2023-01-19T03:01:56.099Z,68.93
2023-01-19T03:02:55.987Z,72.05
2023-01-19T03:03:55.982Z,69.00
2023-01-19T03:04:55.970Z,70.06
2023-01-19T03:05:55.980Z,69.06
2023-01-19T03:06:55.958Z,68.89
2023-01-19T03:07:55.943Z,69.54
2023-01-19T03:08:55.947Z,69.25
2023-01-19T03:09:55.944Z,68.77
2023-01-19T03:10:55.951Z,68.93
2023-01-19T03:11:55.921Z,68.71
2023-01-19T03:12:55.937Z,68.81
2023-01-19T03:13:55.907Z,68.80
2023-01-19T03:14:55.906Z,68.78
2023-01-19T03:15:55.973Z,69.45
2023-01-19T03:16:55.963Z,72.12
2023-01-19T03:17:55.885Z,68.79
2023-01-19T03:18:55.907Z,68.98
2023-01-19T03:19:55.862Z,68.80
2023-01-19T03:20:55.887Z,69.03
2023-01-19T03:21:55.870Z,69.88
2023-01-19T03:22:55.862Z,68.94
2023-01-19T03:23:55.850Z,69.39
2023-01-19T03:24:55.851Z,68.81
2023-01-19T03:25:55.853Z,69.41
2023-01-19T03:26:55.848Z,69.40
2023-01-19T03:27:55.833Z,68.80
2023-01-19T03:28:55.812Z,68.85
2023-01-19T03:29:55.817Z,69.67
2023-01-19T03:30:55.830Z,68.86
2023-01-19T03:31:55.820Z,68.90
2023-01-19T03:32:55.812Z,70.03
2023-01-19T03:33:55.797Z,70.22
2023-01-19T03:34:55.795Z,68.87
2023-01-19T03:35:55.777Z,68.80
2023-01-19T03:36:55.775Z,70.22
2023-01-19T03:37:55.802Z,69.04
2023-01-19T03:38:55.774Z,71.33
2023-01-19T03:39:55.754Z,68.84
2023-01-19T03:40:55.762Z,70.52
2023-01-19T03:41:55.754Z,72.69
2023-01-19T03:42:55.752Z,68.89
2023-01-19T03:43:55.765Z,69.80
2023-01-19T03:44:55.716Z,68.86
2023-01-19T03:45:55.750Z,68.75
2023-01-19T03:46:55.774Z,73.32
2023-01-19T03:47:55.710Z,69.46
2023-01-19T03:48:55.687Z,68.84
2023-01-19T03:49:55.694Z,69.02
2023-01-19T03:50:55.671Z,70.04
2023-01-19T03:51:55.682Z,69.10
2023-01-19T03:52:55.692Z,70.53
2023-01-19T03:53:55.667Z,70.02
2023-01-19T03:54:55.656Z,71.06
2023-01-19T03:55:55.663Z,69.79
2023-01-19T03:56:55.653Z,71.90
2023-01-19T03:57:55.658Z,69.03
2023-01-19T03:58:56.985Z,72.99
2023-01-19T03:59:56.621Z,70.58
2023-01-19T04:00:55.695Z,71.92
2023-01-19T04:01:55.686Z,70.10
2023-01-19T04:02:55.648Z,69.82
2023-01-19T04:03:55.596Z,71.70
2023-01-19T04:04:55.613Z,71.35
2023-01-19T04:05:55.589Z,72.05
2023-01-19T04:06:55.579Z,69.55
2023-01-19T04:07:55.639Z,70.98
2023-01-19T04:08:55.573Z,70.35
2023-01-19T04:09:55.555Z,70.82
2023-01-19T04:10:55.563Z,69.30
2023-01-19T04:11:55.550Z,71.59
2023-01-19T04:12:55.546Z,73.82
2023-01-19T04:13:55.559Z,71.81
2023-01-19T04:14:55.529Z,71.45
2023-01-19T04:15:55.552Z,71.86
2023-01-19T04:16:55.569Z,71.58
2023-01-19T04:17:55.528Z,72.19
2023-01-19T04:18:55.501Z,72.33
2023-01-19T04:19:55.506Z,73.01
2023-01-19T04:20:55.489Z,71.40
2023-01-19T04:21:55.490Z,72.69
2023-01-19T04:22:55.505Z,70.45
2023-01-19T04:23:55.469Z,70.17
2023-01-19T04:24:55.466Z,70.48
2023-01-19T04:25:55.481Z,72.09
2023-01-19T04:26:55.456Z,70.65
2023-01-19T04:27:55.485Z,70.10
2023-01-19T04:28:55.452Z,72.61
2023-01-19T04:29:55.433Z,70.38
2023-01-19T04:30:55.484Z,73.24
2023-01-19T04:31:55.445Z,72.99
2023-01-19T04:32:55.449Z,71.36
2023-01-19T04:33:55.419Z,71.12
2023-01-19T04:34:55.442Z,73.64
2023-01-19T04:35:55.434Z,70.94
2023-01-19T04:36:55.406Z,72.20
2023-01-19T04:37:55.426Z,70.08
2023-01-19T04:38:55.404Z,72.48
2023-01-19T04:39:55.404Z,73.89
2023-01-19T04:40:55.389Z,72.50
2023-01-19T04:41:55.386Z,71.23
2023-01-19T04:42:55.376Z,74.70
2023-01-19T04:43:55.353Z,74.29
2023-01-19T04:44:55.356Z,71.91
2023-01-19T04:45:56.375Z,69.86
2023-01-19T04:46:55.353Z,73.08
2023-01-19T04:47:55.350Z,73.75
2023-01-19T04:48:55.333Z,71.81
2023-01-19T04:49:55.339Z,70.76
2023-01-19T04:50:55.344Z,70.67
2023-01-19T04:51:55.310Z,71.18
2023-01-19T04:52:55.320Z,73.50
2023-01-19T04:53:55.350Z,72.55
2023-01-19T04:54:55.300Z,74.17
2023-01-19T04:55:55.302Z,73.01
2023-01-19T04:56:55.295Z,72.07
2023-01-19T04:57:55.304Z,70.70
2023-01-19T04:58:55.294Z,73.87
2023-01-19T04:59:55.296Z,75.42
2023-01-19T05:00:55.319Z,74.14
2023-01-19T05:01:55.278Z,73.86
2023-01-19T05:02:55.278Z,69.39
2023-01-19T05:03:55.297Z,71.19
2023-01-19T05:04:55.248Z,73.28
2023-01-19T05:05:55.234Z,73.56
2023-01-19T05:06:55.239Z,74.66
2023-01-19T05:07:55.229Z,73.77
2023-01-19T05:08:55.224Z,72.10
2023-01-19T05:09:55.240Z,71.35
2023-01-19T05:10:55.222Z,71.12
2023-01-19T05:11:55.205Z,72.76
2023-01-19T05:12:55.203Z,74.86
2023-01-19T05:13:55.211Z,72.84
2023-01-19T05:14:55.187Z,73.06
2023-01-19T05:15:55.284Z,75.19
2023-01-19T05:16:55.212Z,74.57
2023-01-19T05:17:55.160Z,72.75
2023-01-19T05:18:55.186Z,70.83
2023-01-19T05:19:55.144Z,73.17
2023-01-19T05:20:55.144Z,75.43
2023-01-19T05:21:55.176Z,73.96
2023-01-19T05:22:55.134Z,73.24
2023-01-19T05:23:55.132Z,73.07
2023-01-19T05:24:55.214Z,75.64
2023-01-19T05:25:56.119Z,72.79
2023-01-19T05:26:55.130Z,71.97
2023-01-19T05:27:55.121Z,73.95
2023-01-19T05:28:55.098Z,74.70
2023-01-19T05:29:55.095Z,73.39
2023-01-19T05:30:55.112Z,73.30
2023-01-19T05:31:55.121Z,73.84
2023-01-19T05:32:55.062Z,71.01
2023-01-19T05:33:55.070Z,73.81
2023-01-19T05:34:55.079Z,74.23
2023-01-19T05:35:55.094Z,74.74
2023-01-19T05:36:55.062Z,73.16
2023-01-19T05:37:55.439Z,72.56
2023-01-19T05:38:55.035Z,74.03
2023-01-19T05:39:55.082Z,73.54
2023-01-19T05:40:55.050Z,75.34
2023-01-19T05:41:55.032Z,76.21
2023-01-19T05:42:54.999Z,72.03
2023-01-19T05:43:55.009Z,73.50
2023-01-19T05:44:55.005Z,75.53
2023-01-19T05:45:54.999Z,73.37
2023-01-19T05:46:55.036Z,74.39
2023-01-19T05:47:54.971Z,73.26
2023-01-19T05:48:54.966Z,74.30
2023-01-19T05:49:54.968Z,74.73
2023-01-19T05:50:54.997Z,74.63
2023-01-19T05:51:54.973Z,74.41
2023-01-19T05:52:54.950Z,77.12
2023-01-19T05:53:54.957Z,74.33
2023-01-19T05:54:54.923Z,74.40
2023-01-19T05:55:54.976Z,72.84
2023-01-19T05:56:54.913Z,72.30
2023-01-19T05:57:54.910Z,75.44
2023-01-19T05:58:54.941Z,71.48
2023-01-19T05:59:55.018Z,75.46
2023-01-19T06:00:54.910Z,74.85
2023-01-19T06:01:55.517Z,76.08
2023-01-19T06:02:54.915Z,75.97
2023-01-19T06:03:54.939Z,72.91
2023-01-19T06:04:54.859Z,71.42
2023-01-19T06:05:54.854Z,74.52
2023-01-19T06:06:54.877Z,72.12
2023-01-19T06:07:54.847Z,72.19
2023-01-19T06:08:54.865Z,75.09
2023-01-19T06:09:54.852Z,72.90
2023-01-19T06:10:54.827Z,74.64
2023-01-19T06:11:54.851Z,73.33
2023-01-19T06:12:54.829Z,74.15
2023-01-19T06:13:54.800Z,73.35
2023-01-19T06:14:54.803Z,73.50
2023-01-19T06:15:54.832Z,75.72
2023-01-19T06:16:54.787Z,73.87
2023-01-19T06:17:54.817Z,73.12
2023-01-19T06:18:54.787Z,74.53
2023-01-19T06:19:54.780Z,74.39
2023-01-19T06:20:54.772Z,75.32
2023-01-19T06:21:54.790Z,73.06
2023-01-19T06:22:54.766Z,73.56
2023-01-19T06:23:54.795Z,75.66
2023-01-19T06:24:54.743Z,74.76
2023-01-19T06:25:54.952Z,78.09
2023-01-19T06:26:54.731Z,74.75
2023-01-19T06:27:54.765Z,75.28
2023-01-19T06:28:54.760Z,75.11
2023-01-19T06:29:54.755Z,74.45
2023-01-19T06:30:54.777Z,73.91
2023-01-19T06:31:54.790Z,75.79
2023-01-19T06:32:54.719Z,74.32
2023-01-19T06:33:54.729Z,75.60
2023-01-19T06:34:54.697Z,76.17
2023-01-19T06:35:54.669Z,75.17
2023-01-19T06:36:54.684Z,74.46
2023-01-19T06:37:54.758Z,74.44
2023-01-19T06:38:54.664Z,72.45
2023-01-19T06:39:54.654Z,74.53
2023-01-19T06:40:54.654Z,75.16
2023-01-19T06:41:55.509Z,74.57
2023-01-19T06:42:54.632Z,73.69
2023-01-19T06:43:54.645Z,76.19
2023-01-19T06:44:54.636Z,74.53
2023-01-19T06:45:54.740Z,75.16
2023-01-19T06:47:14.631Z,75.01
2023-01-19T06:47:55.636Z,74.59
2023-01-19T06:48:54.638Z,73.97
2023-01-19T06:49:54.614Z,76.35
2023-01-19T06:50:54.608Z,75.12
2023-01-19T06:51:54.613Z,74.89
2023-01-19T06:52:54.580Z,76.55
2023-01-19T06:53:54.571Z,73.47
2023-01-19T06:54:54.580Z,76.38
2023-01-19T06:55:54.573Z,75.81
2023-01-19T06:56:54.564Z,73.97
2023-01-19T06:57:54.587Z,73.88
2023-01-19T06:58:54.551Z,74.44
2023-01-19T06:59:54.539Z,76.50
2023-01-19T07:00:54.630Z,74.96
2023-01-19T07:01:54.632Z,76.52
2023-01-19T07:02:54.567Z,74.30
2023-01-19T07:03:54.518Z,73.67
2023-01-19T07:04:54.528Z,76.15
2023-01-19T07:05:54.504Z,75.64
2023-01-19T07:06:54.504Z,74.59
2023-01-19T07:07:55.542Z,75.30
2023-01-19T07:08:54.483Z,70.91
2023-01-19T07:09:54.467Z,72.35
2023-01-19T07:11:25.748Z,75.86
2023-01-19T07:11:55.559Z,73.94
2023-01-19T07:12:54.470Z,73.19
2023-01-19T07:13:54.508Z,75.25
2023-01-19T07:14:54.460Z,75.55
2023-01-19T07:15:55.541Z,76.17
2023-01-19T07:16:54.477Z,76.36
2023-01-19T07:17:54.501Z,72.42
2023-01-19T07:18:54.430Z,73.98
2023-01-19T07:19:54.418Z,74.62
2023-01-19T07:20:54.433Z,75.90
2023-01-19T07:21:54.398Z,73.09
2023-01-19T07:22:54.980Z,73.68
2023-01-19T07:23:54.438Z,73.79
2023-01-19T07:24:54.408Z,74.71
2023-01-19T07:25:54.397Z,73.05
2023-01-19T07:26:54.376Z,73.76
2023-01-19T07:27:54.364Z,75.34
2023-01-19T07:28:54.364Z,73.56
2023-01-19T07:29:54.406Z,75.12
2023-01-19T07:30:54.419Z,75.03
2023-01-19T07:31:54.395Z,73.99
2023-01-19T07:32:54.327Z,73.51
2023-01-19T07:33:54.349Z,72.07
2023-01-19T07:34:54.325Z,73.99
2023-01-19T07:35:54.316Z,73.60
2023-01-19T07:36:54.320Z,75.17
2023-01-19T07:37:54.308Z,73.59
2023-01-19T07:38:54.287Z,74.51
2023-01-19T07:39:54.334Z,71.78
2023-01-19T07:40:54.291Z,74.60
2023-01-19T07:41:54.748Z,74.10
2023-01-19T07:42:54.275Z,74.28
2023-01-19T07:43:54.261Z,75.54
2023-01-19T07:44:54.337Z,74.94
2023-01-19T07:45:54.292Z,74.40
2023-01-19T07:46:54.272Z,73.80
2023-01-19T07:47:54.244Z,73.25
2023-01-19T07:48:54.260Z,72.25
2023-01-19T07:49:54.224Z,75.67
2023-01-19T07:50:54.269Z,74.30
2023-01-19T07:51:54.232Z,71.71
2023-01-19T07:52:54.209Z,72.25
2023-01-19T07:53:54.235Z,74.49
2023-01-19T07:54:54.222Z,73.26
2023-01-19T07:55:54.231Z,75.18
2023-01-19T07:56:54.195Z,72.98
2023-01-19T07:57:54.198Z,72.33
2023-01-19T07:58:54.186Z,73.36
2023-01-19T07:59:54.190Z,73.33
2023-01-19T08:00:54.322Z,74.42
2023-01-19T08:01:54.464Z,72.63
2023-01-19T08:02:54.157Z,73.74
2023-01-19T08:03:54.195Z,73.74
2023-01-19T08:04:54.178Z,73.67
2023-01-19T08:05:54.139Z,70.29
2023-01-19T08:06:54.189Z,73.61
2023-01-19T08:07:54.282Z,71.56
2023-01-19T08:08:55.124Z,72.97
2023-01-19T08:09:54.141Z,70.88
2023-01-19T08:10:54.094Z,69.10
2023-01-19T08:11:54.136Z,67.22
2023-01-19T08:12:54.115Z,72.42
2023-01-19T08:13:54.097Z,71.54
2023-01-19T08:14:54.080Z,71.18
2023-01-19T08:15:54.129Z,69.57
2023-01-19T08:16:54.074Z,72.33
2023-01-19T08:17:54.099Z,71.29
2023-01-19T08:18:54.093Z,72.43
2023-01-19T08:19:54.045Z,75.95
2023-01-19T08:20:54.039Z,72.41
2023-01-19T08:21:54.054Z,72.35
2023-01-19T08:22:54.037Z,69.13
2023-01-19T08:23:54.074Z,74.08
2023-01-19T08:24:54.052Z,70.06
2023-01-19T08:25:54.007Z,69.29
2023-01-19T08:26:54.013Z,76.46
2023-01-19T08:27:54.032Z,72.23
2023-01-19T08:28:53.999Z,69.77
2023-01-19T08:29:53.998Z,71.53
2023-01-19T08:30:54.302Z,70.84
2023-01-19T08:31:54.014Z,73.65
2023-01-19T08:32:54.984Z,71.97
2023-01-19T08:33:54.034Z,69.27
2023-01-19T08:34:53.940Z,71.26
2023-01-19T08:35:53.958Z,71.42
2023-01-19T08:36:53.953Z,71.80
2023-01-19T08:37:53.933Z,72.07
2023-01-19T08:38:53.975Z,67.93
2023-01-19T08:39:53.972Z,72.86
2023-01-19T08:40:53.908Z,75.63
2023-01-19T08:41:53.910Z,70.39
2023-01-19T08:42:53.911Z,71.05
2023-01-19T08:43:53.921Z,75.96
2023-01-19T08:44:58.122Z,73.07
2023-01-19T08:45:54.897Z,73.06
2023-01-19T08:46:53.940Z,65.64
2023-01-19T08:47:53.878Z,69.04
2023-01-19T08:48:53.894Z,71.61
2023-01-19T08:49:54.874Z,73.78
2023-01-19T08:50:53.866Z,72.55
2023-01-19T08:51:53.872Z,73.21
2023-01-19T08:52:53.846Z,69.88
2023-01-19T08:53:53.849Z,72.11
2023-01-19T08:54:53.868Z,73.01
2023-01-19T08:55:53.833Z,73.61
2023-01-19T08:56:53.838Z,71.72
2023-01-19T08:57:53.818Z,73.38
2023-01-19T08:59:08.087Z,73.32
2023-01-19T08:59:55.830Z,73.39
2023-01-19T09:00:53.845Z,74.03
2023-01-19T09:01:53.951Z,71.08
2023-01-19T09:02:53.845Z,73.40
2023-01-19T09:03:53.781Z,72.71
2023-01-19T09:04:53.774Z,74.79
2023-01-19T09:05:54.128Z,71.52
2023-01-19T09:06:53.770Z,73.38
2023-01-19T09:07:53.750Z,69.95
2023-01-19T09:08:53.749Z,73.92
2023-01-19T09:09:53.765Z,68.94
2023-01-19T09:10:53.752Z,73.11
2023-01-19T09:11:53.739Z,71.88
2023-01-19T09:12:53.735Z,72.26
2023-01-19T09:13:53.730Z,70.30
2023-01-19T09:14:53.716Z,72.92
2023-01-19T09:15:53.728Z,71.68
2023-01-19T09:16:53.720Z,73.73
2023-01-19T09:17:53.696Z,72.01
2023-01-19T09:18:53.713Z,70.22
2023-01-19T09:19:53.679Z,74.57
2023-01-19T09:20:53.680Z,74.62
2023-01-19T09:21:53.704Z,71.58
2023-01-19T09:22:53.663Z,72.18
2023-01-19T09:23:53.671Z,72.17
2023-01-19T09:24:53.663Z,74.68
2023-01-19T09:25:53.647Z,72.06
2023-01-19T09:26:53.656Z,73.50
2023-01-19T09:27:53.643Z,72.00
2023-01-19T09:28:53.633Z,75.27
2023-01-19T09:29:53.624Z,71.15
2023-01-19T09:30:53.891Z,73.65
2023-01-19T09:31:53.677Z,71.59
2023-01-19T09:32:53.605Z,73.00
2023-01-19T09:33:53.610Z,68.97
2023-01-19T09:34:53.601Z,74.33
2023-01-19T09:35:53.590Z,71.69
2023-01-19T09:36:53.609Z,70.53
2023-01-19T09:37:53.574Z,74.10
2023-01-19T09:38:53.562Z,72.39
2023-01-19T09:39:53.661Z,72.23
2023-01-19T09:40:53.588Z,72.92
2023-01-19T09:41:53.550Z,73.61
2023-01-19T09:42:53.557Z,66.92
2023-01-19T09:43:53.555Z,72.11
2023-01-19T09:44:53.531Z,70.53
2023-01-19T09:45:53.537Z,69.93
2023-01-19T09:46:53.536Z,70.65
2023-01-19T09:47:53.536Z,69.68
2023-01-19T09:48:53.552Z,74.49
2023-01-19T09:49:53.518Z,70.75
2023-01-19T09:50:53.495Z,76.00
2023-01-19T09:51:54.485Z,73.93
2023-01-19T09:52:53.503Z,70.53
2023-01-19T09:53:53.587Z,76.48
2023-01-19T09:54:53.476Z,74.39
2023-01-19T09:55:53.489Z,71.63
2023-01-19T09:56:53.474Z,73.43
2023-01-19T09:57:53.505Z,71.79
2023-01-19T09:58:53.603Z,71.93
2023-01-19T09:59:53.440Z,75.66
2023-01-19T10:00:53.629Z,73.21
2023-01-19T10:01:53.487Z,71.84
2023-01-19T10:02:53.476Z,70.96
2023-01-19T10:03:53.485Z,75.71
2023-01-19T10:04:53.425Z,73.07
2023-01-19T10:05:53.418Z,73.06
2023-01-19T10:06:53.406Z,75.92
2023-01-19T10:07:53.475Z,76.97
2023-01-19T10:08:54.413Z,73.22
2023-01-19T10:09:53.380Z,73.49
2023-01-19T10:10:53.373Z,74.55
2023-01-19T10:11:53.697Z,75.44
2023-01-19T10:12:53.359Z,70.86
2023-01-19T10:13:53.353Z,72.53
2023-01-19T10:14:53.363Z,71.83
2023-01-19T10:15:53.394Z,72.67
2023-01-19T10:16:53.331Z,75.35
2023-01-19T10:17:53.365Z,75.63
2023-01-19T10:18:53.344Z,73.27
2023-01-19T10:19:53.317Z,74.94
2023-01-19T10:20:53.313Z,75.58
2023-01-19T10:21:53.312Z,74.77
2023-01-19T10:22:53.368Z,74.92
2023-01-19T10:23:53.300Z,75.42
2023-01-19T10:24:53.329Z,72.19
2023-01-19T10:25:53.455Z,75.79
2023-01-19T10:26:53.427Z,75.16
2023-01-19T10:27:53.290Z,74.93
2023-01-19T10:28:53.300Z,76.39
2023-01-19T10:29:53.266Z,74.34
2023-01-19T10:30:53.300Z,71.31
2023-01-19T10:31:53.337Z,74.12
2023-01-19T10:32:53.256Z,72.89
2023-01-19T10:33:53.235Z,72.33
2023-01-19T10:34:53.307Z,75.88
2023-01-19T10:35:54.228Z,74.17
2023-01-19T10:36:53.244Z,70.91
2023-01-19T10:37:53.215Z,69.34
2023-01-19T10:38:53.211Z,75.80
2023-01-19T10:39:53.238Z,74.99
2023-01-19T10:40:53.195Z,73.67
2023-01-19T10:41:53.348Z,75.78
2023-01-19T10:42:53.188Z,73.22
2023-01-19T10:43:53.194Z,72.71
2023-01-19T10:44:53.254Z,76.06
2023-01-19T10:45:53.226Z,73.30
2023-01-19T10:46:53.165Z,76.63
2023-01-19T10:47:53.241Z,77.05
2023-01-19T10:48:53.142Z,74.12
2023-01-19T10:49:53.182Z,75.70
2023-01-19T10:50:53.136Z,72.13
2023-01-19T10:51:53.150Z,71.58
2023-01-19T10:52:53.153Z,74.15
2023-01-19T10:53:53.111Z,73.87
2023-01-19T10:54:53.127Z,73.42
2023-01-19T10:55:53.166Z,73.49
2023-01-19T10:56:53.113Z,74.37
2023-01-19T10:57:53.197Z,76.11
2023-01-19T10:58:53.147Z,72.46
2023-01-19T10:59:53.188Z,72.50
2023-01-19T11:00:53.207Z,71.05
2023-01-19T11:01:53.267Z,73.44
2023-01-19T11:02:53.143Z,74.33
2023-01-19T11:03:53.149Z,76.14
2023-01-19T11:04:53.281Z,75.12
2023-01-19T11:05:53.058Z,70.72
2023-01-19T11:06:53.102Z,74.30
2023-01-19T11:07:53.124Z,73.00
2023-01-19T11:08:53.092Z,74.46
2023-01-19T11:09:53.010Z,77.75
2023-01-19T11:10:53.023Z,76.59
2023-01-19T11:11:53.030Z,74.85
2023-01-19T11:12:52.994Z,76.20
2023-01-19T11:13:53.000Z,72.90
2023-01-19T11:14:53.016Z,73.93
2023-01-19T11:15:52.995Z,74.35
2023-01-19T11:16:52.981Z,76.58
2023-01-19T11:17:52.958Z,73.60
2023-01-19T11:18:52.981Z,74.34
2023-01-19T11:19:52.974Z,71.16
2023-01-19T11:20:52.973Z,73.90
2023-01-19T11:21:52.973Z,79.21
2023-01-19T11:22:52.947Z,75.78
2023-01-19T11:23:52.947Z,74.73
2023-01-19T11:24:52.937Z,75.79
2023-01-19T11:25:52.958Z,76.05
2023-01-19T11:26:52.926Z,73.87
2023-01-19T11:27:52.972Z,74.80
2023-01-19T11:28:52.917Z,71.54
2023-01-19T11:29:52.949Z,68.96
2023-01-19T11:30:52.930Z,75.20
2023-01-19T11:31:52.948Z,71.29
2023-01-19T11:32:52.889Z,73.05
2023-01-19T11:33:52.897Z,73.85
2023-01-19T11:34:52.869Z,75.84
2023-01-19T11:35:52.887Z,76.68
2023-01-19T11:36:52.894Z,73.26
2023-01-19T11:37:52.860Z,72.47
2023-01-19T11:38:52.876Z,69.38
2023-01-19T11:39:52.861Z,76.16
2023-01-19T11:40:52.854Z,74.28
2023-01-19T11:41:52.828Z,72.75
2023-01-19T11:42:52.839Z,72.35
2023-01-19T11:43:52.824Z,74.74
2023-01-19T11:44:52.816Z,75.67
2023-01-19T11:45:52.873Z,77.06
2023-01-19T11:46:52.797Z,74.37
2023-01-19T11:47:52.794Z,73.99
2023-01-19T11:48:52.815Z,74.24
2023-01-19T11:49:52.787Z,75.51
2023-01-19T11:50:52.766Z,71.52
2023-01-19T11:51:52.780Z,76.60
2023-01-19T11:52:52.770Z,75.01
2023-01-19T11:53:52.775Z,74.37
2023-01-19T11:54:52.767Z,73.43
2023-01-19T11:55:52.762Z,78.03
2023-01-19T11:56:53.439Z,76.49
2023-01-19T11:57:54.364Z,75.98
2023-01-19T11:58:53.730Z,75.37
2023-01-19T11:59:52.732Z,75.17
2023-01-19T12:00:52.754Z,77.24
2023-01-19T12:01:52.777Z,77.20
2023-01-19T12:02:52.717Z,72.04
2023-01-19T12:03:54.696Z,76.36
2023-01-19T12:04:53.697Z,77.63
2023-01-19T12:05:52.693Z,76.22
2023-01-19T12:06:52.680Z,74.15
2023-01-19T12:07:52.691Z,75.40
2023-01-19T12:08:52.664Z,72.32
2023-01-19T12:09:52.652Z,71.31
2023-01-19T12:10:52.669Z,75.28
2023-01-19T12:11:52.652Z,75.66
2023-01-19T12:12:52.661Z,77.53
2023-01-19T12:13:53.858Z,77.59
2023-01-19T12:14:53.627Z,77.45
2023-01-19T12:15:52.630Z,76.14
2023-01-19T12:16:52.663Z,76.98
2023-01-19T12:17:52.615Z,75.84
2023-01-19T12:18:52.600Z,74.03
2023-01-19T12:19:54.844Z,75.57
2023-01-19T12:20:53.613Z,71.53
2023-01-19T12:21:52.634Z,78.13
2023-01-19T12:22:52.607Z,74.41
2023-01-19T12:23:52.590Z,77.32
2023-01-19T12:24:52.571Z,75.36
2023-01-19T12:25:54.776Z,76.20
2023-01-19T12:26:53.552Z,78.34
2023-01-19T12:27:52.631Z,74.70
2023-01-19T12:28:52.597Z,74.73
2023-01-19T12:29:52.569Z,74.13
2023-01-19T12:30:52.699Z,76.17
2023-01-19T12:31:52.645Z,76.13
2023-01-19T12:32:52.546Z,72.00
2023-01-19T12:33:52.539Z,74.20
2023-01-19T12:34:52.541Z,75.45
2023-01-19T12:35:52.559Z,74.26
2023-01-19T12:36:52.535Z,71.11
2023-01-19T12:37:52.501Z,74.56
2023-01-19T12:38:52.487Z,71.21
2023-01-19T12:39:52.516Z,71.57
2023-01-19T12:40:52.484Z,72.86
2023-01-19T12:41:52.506Z,73.84
2023-01-19T12:42:52.490Z,70.04
2023-01-19T12:43:52.472Z,73.50
2023-01-19T12:44:52.480Z,69.09
2023-01-19T12:45:53.490Z,72.67
2023-01-19T12:46:52.464Z,72.56
2023-01-19T12:47:52.991Z,69.43
2023-01-19T12:48:53.435Z,72.61
2023-01-19T12:49:52.426Z,73.77
2023-01-19T12:50:52.449Z,70.97
2023-01-19T12:51:52.411Z,73.81
2023-01-19T12:52:52.410Z,72.33